METAR Data

Data at: 1158 UTC 21 Apr 2021

METAR for:KHTO (East Hampton Arpt, NY, US)
Text:KHTO 211135Z AUTO 20006KT 10SM CLR 12/10 A2981 RMK AO2 T01180101
Temperature: 11.8°C ( 53°F)
Dewpoint: 10.1°C ( 50°F) [RH = 89%]
Pressure (altimeter):29.81 inches Hg (1009.6 mb)
Winds:from the SSW (200 degrees) at 7 MPH (6 knots; 3.1 m/s)
Visibility:10 or more sm (16+ km)
Ceiling:at least 12,000 feet AGL
Clouds:sky clear below 12,000 feet AGL
QC Flag:automated observation with no human augmentation